Time;durP1;ratioP1;P1;durP2;ratioP2;P2;SDS_P1;SDS_P2;PMS_P1;PMS_P2;Temp;Humidity;BMP_temperature;BMP_pressure;BME280_temperature;BME280_humidity;BME280_pressure;Samples;Min_cycle;Max_cycle;Signal;HPM_P1;HPM_P2
2022/04/20 00:01:11;;;;;;;78.85;52.13;;;19.00;53.40;;;;;;4955232;28;89608;-36
2022/04/20 00:03:38;;;;;;;77.72;51.83;;;19.00;53.50;;;;;;4949522;28;89580;-40
2022/04/20 00:06:04;;;;;;;78.55;51.95;;;19.00;53.40;;;;;;4953601;28;90095;-39
2022/04/20 00:08:30;;;;;;;77.40;51.90;;;19.00;53.40;;;;;;4949269;28;89940;-39
2022/04/20 00:10:56;;;;;;;78.05;51.88;;;18.90;53.40;;;;;;4949329;28;91175;-40
2022/04/20 00:13:21;;;;;;;77.95;52.20;;;18.90;53.40;;;;;;4953318;28;89678;-35
2022/04/20 00:15:47;;;;;;;78.80;52.28;;;18.90;53.40;;;;;;4949923;28;90038;-34
2022/04/20 00:18:13;;;;;;;79.20;52.10;;;18.90;53.40;;;;;;4950192;28;90327;-39
2022/04/20 00:20:38;;;;;;;77.90;51.80;;;18.90;53.40;;;;;;4947530;28;90234;-36
2022/04/20 00:23:04;;;;;;;78.13;52.05;;;18.90;53.40;;;;;;4940995;28;90841;-37
2022/04/20 00:25:30;;;;;;;78.30;52.15;;;18.90;53.40;;;;;;4946852;28;90836;-37
2022/04/20 00:27:56;;;;;;;77.35;51.85;;;18.80;53.40;;;;;;4941167;28;89644;-38
2022/04/20 00:30:21;;;;;;;78.22;52.28;;;18.80;53.70;;;;;;4943385;28;90340;-39
2022/04/20 00:32:47;;;;;;;78.18;52.28;;;18.80;53.40;;;;;;4951022;28;89805;-40
2022/04/20 00:35:12;;;;;;;76.97;51.55;;;18.80;53.30;;;;;;4943669;28;91918;-34
2022/04/20 00:37:41;;;;;;;77.68;51.97;;;18.80;53.40;;;;;;4947727;28;90092;-38
2022/04/20 00:40:08;;;;;;;77.07;51.65;;;18.80;53.50;;;;;;4945332;28;90892;-38
2022/04/20 00:42:36;;;;;;;77.55;51.80;;;18.80;53.50;;;;;;4942565;28;91251;-35
2022/04/20 00:45:02;;;;;;;78.63;51.75;;;18.80;53.50;;;;;;4945684;28;89753;-37
2022/04/20 00:47:29;;;;;;;77.03;51.38;;;18.80;53.50;;;;;;4951892;28;89930;-37
2022/04/20 00:49:56;;;;;;;77.43;51.60;;;18.80;53.50;;;;;;4947132;28;91157;-39
2022/04/20 00:52:22;;;;;;;76.70;51.33;;;18.80;53.50;;;;;;4949083;28;89120;-35
2022/04/20 00:54:48;;;;;;;76.97;51.42;;;18.80;53.50;;;;;;4955521;28;90180;-38
2022/04/20 00:57:15;;;;;;;77.13;51.80;;;18.80;53.50;;;;;;4943381;28;91098;-36
2022/04/20 00:59:41;;;;;;;79.00;51.70;;;18.70;53.50;;;;;;4942623;28;97463;-39
2022/04/20 01:02:07;;;;;;;76.70;51.33;;;18.70;53.50;;;;;;4942848;28;90317;-36
2022/04/20 01:04:33;;;;;;;76.57;51.13;;;18.70;53.50;;;;;;4948885;28;91682;-36
2022/04/20 01:07:00;;;;;;;77.18;51.42;;;18.70;53.50;;;;;;4942514;28;90882;-36
2022/04/20 01:09:26;;;;;;;76.30;51.35;;;18.80;53.60;;;;;;4950683;28;90324;-38
2022/04/20 01:11:54;;;;;;;76.75;51.65;;;18.70;53.50;;;;;;4945743;28;91756;-38
2022/04/20 01:14:20;;;;;;;77.60;51.63;;;18.70;53.60;;;;;;4944677;28;89880;-39
2022/04/20 01:16:47;;;;;;;76.97;51.58;;;18.70;53.60;;;;;;4948559;28;88725;-40
2022/04/20 01:19:14;;;;;;;78.47;52.05;;;18.70;53.60;;;;;;4949749;28;89850;-37
2022/04/20 01:21:40;;;;;;;77.90;51.25;;;18.70;53.60;;;;;;4950348;28;91281;-35
2022/04/20 01:24:05;;;;;;;77.40;51.33;;;18.70;53.60;;;;;;4947352;28;90658;-38
2022/04/20 01:26:33;;;;;;;77.57;51.58;;;18.70;53.60;;;;;;4940451;28;90040;-40
2022/04/20 01:29:03;;;;;;;76.72;51.15;;;18.60;53.50;;;;;;4941017;28;90052;-35
2022/04/20 01:31:29;;;;;;;76.97;51.30;;;18.60;53.50;;;;;;4947608;28;90063;-41
2022/04/20 01:33:55;;;;;;;76.30;51.30;;;18.60;53.60;;;;;;4948416;28;90089;-39
2022/04/20 01:36:21;;;;;;;76.72;51.53;;;18.60;53.60;;;;;;4940056;28;89787;-40
2022/04/20 01:38:46;;;;;;;77.00;51.42;;;18.60;53.50;;;;;;4950341;28;90693;-38
2022/04/20 01:41:13;;;;;;;76.47;51.30;;;18.60;53.60;;;;;;4945500;28;89792;-37
2022/04/20 01:43:39;;;;;;;77.03;51.53;;;18.60;53.60;;;;;;4947598;28;91751;-38
2022/04/20 01:46:04;;;;;;;77.25;51.22;;;18.60;53.60;;;;;;4947034;28;90248;-37
2022/04/20 01:48:30;;;;;;;76.82;51.13;;;18.60;53.70;;;;;;4946941;28;93002;-38
2022/04/20 01:53:40;;;;;;;76.10;51.13;;;18.60;53.70;;;;;;4948052;28;90019;-36
2022/04/20 01:56:06;;;;;;;76.43;51.25;;;18.60;53.70;;;;;;4943704;28;89884;-36
2022/04/20 01:58:34;;;;;;;76.40;51.15;;;18.50;53.70;;;;;;4942163;28;92353;-38
2022/04/20 02:02:34;;;;;;;76.20;51.22;;;18.50;53.70;;;;;;4946837;28;90431;-40
2022/04/20 02:03:46;;;;;;;75.85;51.15;;;18.50;53.60;;;;;;4943690;28;89488;-41
2022/04/20 02:06:14;;;;;;;75.47;51.20;;;18.50;53.70;;;;;;4949930;28;89226;-37
2022/04/20 02:08:40;;;;;;;76.35;51.33;;;18.50;53.70;;;;;;4950541;28;89796;-39
2022/04/20 02:11:06;;;;;;;76.90;51.28;;;18.50;53.70;;;;;;4946514;28;92273;-35
2022/04/20 02:13:32;;;;;;;76.93;51.20;;;18.40;53.70;;;;;;4948740;28;90743;-34
2022/04/20 02:15:58;;;;;;;75.82;50.97;;;18.50;53.80;;;;;;4950498;28;90192;-37
2022/04/20 02:18:24;;;;;;;76.18;51.08;;;18.50;53.80;;;;;;4951751;28;90754;-39
2022/04/20 02:20:50;;;;;;;75.90;50.85;;;18.40;54.30;;;;;;4954039;28;89941;-39
2022/04/20 02:23:16;;;;;;;75.60;50.90;;;18.40;53.70;;;;;;4944665;28;90043;-37
2022/04/20 02:25:42;;;;;;;75.78;51.00;;;18.40;53.80;;;;;;4951305;28;90888;-41
2022/04/20 02:28:07;;;;;;;76.88;51.08;;;18.40;53.80;;;;;;4940332;28;96729;-39
2022/04/20 02:30:33;;;;;;;75.28;50.85;;;18.40;53.80;;;;;;4943513;28;89877;-39
2022/04/20 02:32:58;;;;;;;75.93;50.90;;;18.40;53.80;;;;;;4943763;28;90493;-38
2022/04/20 02:35:24;;;;;;;75.78;50.83;;;18.40;53.80;;;;;;4946466;28;90076;-40
2022/04/20 02:37:50;;;;;;;76.22;51.05;;;18.40;53.80;;;;;;4948909;28;93641;-36
2022/04/20 02:40:16;;;;;;;76.30;51.53;;;18.30;53.90;;;;;;4950727;28;90593;-38
2022/04/20 02:42:41;;;;;;;75.47;50.95;;;18.30;53.90;;;;;;4938943;28;90403;-37
2022/04/20 02:45:07;;;;;;;76.20;51.25;;;18.30;53.90;;;;;;4949748;28;90178;-35
2022/04/20 02:47:33;;;;;;;75.53;51.08;;;18.30;53.80;;;;;;4944147;28;90047;-39
2022/04/20 02:49:59;;;;;;;75.65;51.15;;;18.30;53.80;;;;;;4955483;28;90013;-41
2022/04/20 02:52:24;;;;;;;75.15;50.45;;;18.30;53.90;;;;;;4947395;28;89899;-35
2022/04/20 02:54:50;;;;;;;75.93;50.65;;;18.30;53.90;;;;;;4951104;28;89079;-35
2022/04/20 02:57:16;;;;;;;75.45;50.95;;;18.30;54.00;;;;;;4942146;28;91784;-40
2022/04/20 02:59:41;;;;;;;75.82;50.95;;;18.20;53.90;;;;;;4941727;28;91523;-37
2022/04/20 03:02:07;;;;;;;75.72;50.83;;;18.20;53.90;;;;;;4947533;28;91386;-38
2022/04/20 03:04:33;;;;;;;75.15;50.63;;;18.20;53.90;;;;;;4946981;28;89793;-34
2022/04/20 03:06:59;;;;;;;74.70;50.58;;;18.20;54.00;;;;;;4952322;28;94852;-41
2022/04/20 03:09:25;;;;;;;75.97;50.88;;;18.20;54.00;;;;;;4944102;28;92847;-37
2022/04/20 03:11:51;;;;;;;74.78;50.70;;;18.20;54.00;;;;;;4958374;28;91307;-38
2022/04/20 03:14:18;;;;;;;75.57;50.85;;;18.20;54.00;;;;;;4944531;28;90039;-40
2022/04/20 03:16:44;;;;;;;75.45;50.83;;;18.20;53.90;;;;;;4944808;28;90180;-38
2022/04/20 03:19:09;;;;;;;77.28;50.85;;;18.20;53.90;;;;;;4948769;28;89161;-38
2022/04/20 03:21:35;;;;;;;75.28;50.88;;;18.20;54.00;;;;;;4950267;28;89622;-35
2022/04/20 03:24:01;;;;;;;75.43;50.75;;;18.10;54.00;;;;;;4947390;28;91861;-40
2022/04/20 03:26:27;;;;;;;75.63;50.75;;;18.10;54.00;;;;;;4948067;28;90868;-39
2022/04/20 03:28:53;;;;;;;76.05;50.75;;;18.10;54.10;;;;;;4944831;28;90201;-40
2022/04/20 03:31:18;;;;;;;75.28;50.78;;;18.10;54.00;;;;;;4951971;28;90001;-38
2022/04/20 03:33:44;;;;;;;75.18;50.55;;;18.10;54.10;;;;;;4952291;28;91107;-40
2022/04/20 03:36:10;;;;;;;77.10;51.08;;;18.10;54.10;;;;;;4950657;28;91243;-41
2022/04/20 03:38:36;;;;;;;75.20;50.83;;;18.10;54.10;;;;;;4952641;28;90086;-36
2022/04/20 03:41:05;;;;;;;74.93;50.67;;;18.10;54.10;;;;;;4956582;28;90005;-41
2022/04/20 03:43:31;;;;;;;76.13;51.38;;;18.10;54.10;;;;;;4954127;28;89146;-38
2022/04/20 03:45:57;;;;;;;74.45;50.42;;;18.00;54.10;;;;;;4950087;28;89853;-37
2022/04/20 03:48:23;;;;;;;75.15;50.80;;;18.10;54.10;;;;;;4946033;28;92362;-40
2022/04/20 03:50:50;;;;;;;74.75;50.65;;;18.00;54.10;;;;;;4945857;28;92336;-33
2022/04/20 03:53:15;;;;;;;74.95;50.65;;;18.00;54.10;;;;;;4946680;28;89867;-40
2022/04/20 03:55:41;;;;;;;74.80;50.85;;;18.00;54.20;;;;;;4947350;28;93216;-38
2022/04/20 03:58:07;;;;;;;75.07;50.92;;;18.00;54.10;;;;;;4950068;28;90149;-37
2022/04/20 04:00:33;;;;;;;75.15;50.85;;;18.00;54.10;;;;;;4943151;28;90300;-38
2022/04/20 04:02:58;;;;;;;75.40;50.67;;;18.00;54.10;;;;;;4956277;28;89989;-38
2022/04/20 04:05:24;;;;;;;74.93;50.70;;;18.00;54.10;;;;;;4945102;28;92614;-34
2022/04/20 04:07:50;;;;;;;73.90;50.35;;;18.00;54.20;;;;;;4944730;28;89618;-38
2022/04/20 04:10:15;;;;;;;74.45;50.55;;;18.00;54.30;;;;;;4944728;28;89974;-36
2022/04/20 04:12:41;;;;;;;75.30;50.83;;;18.00;54.30;;;;;;4946999;28;90005;-41
2022/04/20 04:15:08;;;;;;;74.90;50.60;;;17.90;54.10;;;;;;4947153;28;91012;-39
2022/04/20 04:17:34;;;;;;;74.65;50.65;;;17.90;54.10;;;;;;4952793;28;91394;-37
2022/04/20 04:20:00;;;;;;;74.40;50.33;;;17.90;54.10;;;;;;4945976;28;89926;-38
2022/04/20 04:22:26;;;;;;;74.55;50.65;;;17.90;54.10;;;;;;4949724;28;89906;-38
2022/04/20 04:24:51;;;;;;;74.60;50.72;;;17.90;54.20;;;;;;4950378;28;90282;-39
2022/04/20 04:27:17;;;;;;;74.20;50.42;;;17.90;54.10;;;;;;4944366;28;90518;-36
2022/04/20 04:29:43;;;;;;;75.78;50.75;;;17.90;54.10;;;;;;4948804;28;91262;-38
2022/04/20 04:32:09;;;;;;;74.93;50.58;;;17.90;54.10;;;;;;4952492;28;89564;-37
2022/04/20 04:34:35;;;;;;;74.43;50.35;;;17.90;54.10;;;;;;4944659;28;90194;-37
2022/04/20 04:37:00;;;;;;;74.05;50.55;;;17.90;54.10;;;;;;4948496;28;90048;-40
2022/04/20 04:39:28;;;;;;;75.43;50.63;;;17.90;54.30;;;;;;4947598;28;90633;-36
2022/04/20 04:41:56;;;;;;;74.55;50.72;;;17.80;54.10;;;;;;4945797;28;90342;-35
2022/04/20 04:44:22;;;;;;;74.13;50.55;;;17.90;54.30;;;;;;4952144;28;89717;-37
2022/04/20 04:49:32;;;;;;;74.32;50.60;;;17.80;54.30;;;;;;4952544;28;92749;-40
2022/04/20 04:51:59;;;;;;;74.40;50.53;;;17.80;54.30;;;;;;4947900;28;90090;-36
2022/04/20 04:54:25;;;;;;;74.72;50.65;;;17.80;54.20;;;;;;4942750;28;89908;-40
2022/04/20 04:56:52;;;;;;;74.65;50.35;;;17.80;54.30;;;;;;4945687;28;91434;-36
2022/04/20 04:59:18;;;;;;;74.63;50.58;;;17.80;54.30;;;;;;4945519;28;89536;-37
2022/04/20 05:01:44;;;;;;;74.55;50.42;;;17.80;54.30;;;;;;4941212;28;90012;-39
2022/04/20 05:04:11;;;;;;;74.40;50.63;;;17.80;54.30;;;;;;4938732;28;91047;-40
2022/04/20 05:06:37;;;;;;;73.95;50.22;;;17.70;54.30;;;;;;4944974;28;98426;-36
2022/04/20 05:09:03;;;;;;;74.97;50.65;;;17.70;54.30;;;;;;4946043;28;89759;-38
2022/04/20 05:11:28;;;;;;;75.10;50.35;;;17.70;54.40;;;;;;4948275;28;89777;-39
2022/04/20 05:13:54;;;;;;;74.28;50.45;;;17.70;54.30;;;;;;4952104;28;90236;-35
2022/04/20 05:16:20;;;;;;;74.53;50.28;;;17.80;55.00;;;;;;4945534;28;90651;-38
2022/04/20 05:18:46;;;;;;;74.28;49.97;;;17.70;54.30;;;;;;4945135;28;90988;-39
2022/04/20 05:21:12;;;;;;;73.43;50.05;;;17.70;54.20;;;;;;4949352;28;89926;-39
2022/04/20 05:23:37;;;;;;;74.82;51.03;;;17.70;54.20;;;;;;4942777;28;95557;-38
2022/04/20 05:26:03;;;;;;;74.20;50.38;;;17.70;54.40;;;;;;4947650;28;90209;-37
2022/04/20 05:28:29;;;;;;;76.22;50.50;;;17.70;54.30;;;;;;4936854;28;91388;-40
2022/04/20 05:30:54;;;;;;;74.63;50.35;;;17.70;54.20;;;;;;4932007;28;90311;-40
2022/04/20 05:33:20;;;;;;;73.90;50.35;;;17.70;54.30;;;;;;4943222;28;90722;-35
2022/04/20 05:35:46;;;;;;;75.47;50.58;;;17.70;54.30;;;;;;4933521;28;91038;-38
2022/04/20 05:43:41;;;;;;;74.03;50.42;;;17.70;54.40;;;;;;4938363;28;90970;-36
2022/04/20 05:46:06;;;;;;;75.72;50.83;;;17.70;54.40;;;;;;4941312;28;90376;-35
2022/04/20 05:48:33;;;;;;;74.20;50.30;;;17.70;54.40;;;;;;4948243;28;89460;-39
2022/04/20 05:51:00;;;;;;;75.68;50.35;;;17.60;54.40;;;;;;4946253;28;89390;-40
2022/04/20 05:53:25;;;;;;;74.32;50.53;;;17.70;54.50;;;;;;4950409;28;91695;-36
2022/04/20 05:55:51;;;;;;;75.82;50.30;;;17.70;54.50;;;;;;4946790;28;92509;-38
2022/04/20 05:58:17;;;;;;;74.40;50.42;;;17.60;54.40;;;;;;4943997;28;96268;-39
2022/04/20 06:00:43;;;;;;;74.05;50.50;;;17.60;54.40;;;;;;4935511;28;90535;-36
2022/04/20 06:03:09;;;;;;;75.15;50.40;;;17.70;54.50;;;;;;4940253;28;90750;-42
2022/04/20 06:05:34;;;;;;;75.47;50.35;;;17.70;54.60;;;;;;4945254;28;91161;-37
2022/04/20 06:08:00;;;;;;;75.22;50.33;;;17.70;54.60;;;;;;4943951;28;90711;-36
2022/04/20 06:10:26;;;;;;;76.63;50.78;;;17.70;54.50;;;;;;4949145;28;89154;-35
2022/04/20 06:12:51;;;;;;;75.13;50.72;;;17.70;54.70;;;;;;4939051;28;91654;-40
2022/04/20 06:15:17;;;;;;;75.57;50.78;;;17.70;54.50;;;;;;4940242;28;91759;-36
2022/04/20 06:17:43;;;;;;;74.25;50.42;;;17.70;54.60;;;;;;4950961;28;90725;-41
2022/04/20 06:20:10;;;;;;;74.78;50.55;;;17.70;54.50;;;;;;4947296;28;89912;-40
2022/04/20 06:22:35;;;;;;;77.13;50.83;;;17.70;54.50;;;;;;4946164;28;89844;-38
2022/04/20 06:25:02;;;;;;;75.20;50.50;;;17.70;54.30;;;;;;4953880;28;90024;-40
2022/04/20 06:27:31;;;;;;;75.95;50.95;;;17.70;54.50;;;;;;4954553;28;90177;-39
2022/04/20 06:29:57;;;;;;;75.68;50.40;;;17.70;54.40;;;;;;4956413;28;89912;-36
2022/04/20 06:32:27;;;;;;;76.55;50.88;;;17.70;54.40;;;;;;4953573;28;90041;-38
2022/04/20 06:34:54;;;;;;;75.70;50.90;;;17.70;54.40;;;;;;4949469;28;89807;-35
2022/04/20 06:37:22;;;;;;;75.35;50.63;;;17.70;54.40;;;;;;4943552;28;90153;-35
2022/04/20 06:39:49;;;;;;;75.40;50.72;;;17.70;54.20;;;;;;4949265;28;90020;-37
2022/04/20 06:42:15;;;;;;;78.57;51.05;;;17.70;54.30;;;;;;4942549;28;91630;-38
2022/04/20 06:44:41;;;;;;;76.95;51.10;;;17.80;54.30;;;;;;4945179;28;91524;-41
2022/04/20 06:47:07;;;;;;;78.78;51.00;;;17.70;54.30;;;;;;4939305;28;92891;-36
2022/04/20 06:49:33;;;;;;;78.18;51.22;;;17.80;54.40;;;;;;4947131;28;90386;-38
2022/04/20 07:00:12;;;;;;;77.13;50.92;;;17.80;54.30;;;;;;4944610;28;89361;-39
2022/04/20 07:02:38;;;;;;;77.35;50.63;;;17.80;54.20;;;;;;4942325;28;91502;-37
2022/04/20 07:05:05;;;;;;;76.07;51.00;;;17.80;54.30;;;;;;4951680;28;89784;-36
2022/04/20 07:07:31;;;;;;;76.82;50.95;;;17.80;54.20;;;;;;4948438;28;91515;-41
2022/04/20 07:09:57;;;;;;;77.13;51.05;;;17.80;54.20;;;;;;4947150;28;92015;-38
2022/04/20 07:12:23;;;;;;;75.72;50.92;;;17.90;54.20;;;;;;4951369;28;95104;-39
2022/04/20 07:14:48;;;;;;;75.50;50.75;;;17.90;54.20;;;;;;4947286;28;90043;-40
2022/04/20 07:17:15;;;;;;;76.15;51.00;;;17.90;54.20;;;;;;4947644;28;90611;-35
2022/04/20 07:19:40;;;;;;;76.53;51.13;;;17.90;54.20;;;;;;4949558;28;90047;-38
2022/04/20 07:22:06;;;;;;;75.93;51.15;;;17.90;54.10;;;;;;4941899;28;90244;-38
2022/04/20 07:24:32;;;;;;;77.10;50.95;;;17.90;54.10;;;;;;4957622;28;89960;-36
2022/04/20 07:26:57;;;;;;;77.75;50.92;;;17.90;54.10;;;;;;4941501;28;89846;-38
2022/04/20 07:29:23;;;;;;;76.45;50.83;;;17.90;54.10;;;;;;4941564;28;89942;-39
2022/04/20 07:31:49;;;;;;;78.00;51.15;;;17.90;54.10;;;;;;4947156;28;91347;-39
2022/04/20 07:34:14;;;;;;;76.15;50.83;;;17.90;53.90;;;;;;4947141;28;90312;-41
2022/04/20 07:36:40;;;;;;;76.63;50.95;;;18.00;54.00;;;;;;4942674;28;89961;-37
2022/04/20 07:39:05;;;;;;;77.20;51.05;;;18.00;54.00;;;;;;4956342;28;90865;-41
2022/04/20 07:41:31;;;;;;;77.43;51.05;;;18.00;54.00;;;;;;4945006;28;90076;-39
2022/04/20 07:43:57;;;;;;;77.00;50.88;;;18.00;54.60;;;;;;4945506;28;91248;-37
2022/04/20 07:46:22;;;;;;;77.57;50.75;;;18.00;54.00;;;;;;4943395;28;90371;-37
2022/04/20 07:48:48;;;;;;;76.20;50.90;;;18.00;53.90;;;;;;4948258;28;89009;-37
2022/04/20 07:51:14;;;;;;;75.95;50.92;;;18.00;53.90;;;;;;4948843;28;91427;-40
2022/04/20 07:53:40;;;;;;;77.35;51.13;;;18.00;53.90;;;;;;4942655;28;90532;-37
2022/04/20 07:56:06;;;;;;;77.28;51.15;;;18.00;53.80;;;;;;4956749;28;91053;-37
2022/04/20 07:58:31;;;;;;;75.85;50.90;;;18.00;53.80;;;;;;4942877;28;90678;-37
2022/04/20 08:00:57;;;;;;;75.65;50.70;;;18.00;53.70;;;;;;4939152;28;90663;-37
2022/04/20 08:03:24;;;;;;;76.55;51.03;;;18.00;53.70;;;;;;4949817;28;90247;-39
2022/04/20 08:05:54;;;;;;;76.70;50.95;;;18.10;53.70;;;;;;4949171;28;89820;-41
2022/04/20 08:08:21;;;;;;;76.93;50.97;;;18.10;53.60;;;;;;4947919;28;96694;-40
2022/04/20 08:10:47;;;;;;;76.75;51.20;;;18.10;53.60;;;;;;4944205;28;90652;-35
2022/04/20 08:15:57;;;;;;;76.47;50.95;;;18.10;53.70;;;;;;4946832;28;89557;-40
2022/04/20 08:18:25;;;;;;;76.45;51.17;;;18.10;53.80;;;;;;4940575;28;91452;-39
2022/04/20 08:20:50;;;;;;;76.70;51.30;;;18.10;53.80;;;;;;4942208;28;91740;-38
2022/04/20 08:23:20;;;;;;;77.75;51.13;;;18.10;53.60;;;;;;4939785;28;90232;-41
2022/04/20 08:25:46;;;;;;;78.78;51.25;;;18.10;53.60;;;;;;4940854;28;95450;-40
2022/04/20 08:28:13;;;;;;;78.10;51.55;;;18.10;53.50;;;;;;4939195;28;90068;-42
2022/04/20 08:30:39;;;;;;;78.47;51.42;;;18.10;53.60;;;;;;4939511;28;95356;-38
2022/04/20 08:33:07;;;;;;;78.80;51.63;;;18.20;53.60;;;;;;4936641;28;94004;-36
2022/04/20 08:35:37;;;;;;;79.10;51.35;;;18.20;53.60;;;;;;4951617;28;95562;-40
2022/04/20 08:38:06;;;;;;;79.78;51.17;;;18.20;53.50;;;;;;4947829;28;89207;-37
2022/04/20 08:40:33;;;;;;;77.22;51.38;;;18.20;53.60;;;;;;4948214;28;92140;-40
2022/04/20 08:43:05;;;;;;;77.90;51.40;;;18.20;53.50;;;;;;4946002;28;93797;-36
2022/04/20 08:45:37;;;;;;;79.28;51.38;;;18.20;53.40;;;;;;4952697;28;90712;-39
2022/04/20 08:48:03;;;;;;;79.28;51.58;;;18.20;53.40;;;;;;4947139;28;90532;-37
2022/04/20 08:50:29;;;;;;;77.82;51.63;;;18.20;53.40;;;;;;4943751;28;90222;-41
2022/04/20 08:52:56;;;;;;;79.65;51.60;;;18.20;53.40;;;;;;4951696;28;89448;-38
2022/04/20 08:55:22;;;;;;;78.15;51.40;;;18.20;53.40;;;;;;4954116;28;90325;-37
2022/04/20 08:57:50;;;;;;;80.18;51.58;;;18.20;53.30;;;;;;4954609;28;89828;-39
2022/04/20 09:00:20;;;;;;;79.25;51.38;;;18.30;53.30;;;;;;4948198;28;90677;-41
2022/04/20 09:02:49;;;;;;;78.90;51.60;;;18.20;53.30;;;;;;4948727;28;90538;-38
2022/04/20 09:05:14;;;;;;;79.78;51.58;;;18.30;53.40;;;;;;4951738;28;89819;-41
2022/04/20 09:07:40;;;;;;;78.90;51.30;;;18.30;53.20;;;;;;4950814;28;89782;-40
2022/04/20 09:10:06;;;;;;;79.22;51.47;;;18.30;53.30;;;;;;4950489;28;96401;-41
2022/04/20 09:12:32;;;;;;;78.07;51.50;;;18.30;53.30;;;;;;4950526;28;90538;-39
2022/04/20 09:15:00;;;;;;;78.97;51.78;;;18.30;53.20;;;;;;4951437;28;90096;-38
2022/04/20 09:17:26;;;;;;;79.70;51.58;;;18.30;53.20;;;;;;4962704;28;89865;-40
2022/04/20 09:19:54;;;;;;;80.40;51.53;;;18.30;53.20;;;;;;4948470;28;90229;-41
2022/04/20 09:22:29;;;;;;;79.30;51.85;;;18.30;53.20;;;;;;4975013;28;90217;-40
2022/04/20 09:25:17;;;;;;;78.70;51.53;;;18.40;53.20;;;;;;4955825;28;89920;-38
2022/04/20 09:27:43;;;;;;;78.10;51.60;;;18.40;53.30;;;;;;4957615;28;89449;-37
2022/04/20 09:30:16;;;;;;;79.45;51.92;;;18.40;53.30;;;;;;4942655;28;91034;-41
2022/04/20 09:32:46;;;;;;;79.18;51.65;;;18.40;53.30;;;;;;4953732;28;89813;-41
2022/04/20 09:35:14;;;;;;;79.10;51.72;;;18.40;53.20;;;;;;4945858;28;91100;-39
2022/04/20 09:37:42;;;;;;;78.88;51.90;;;18.40;53.20;;;;;;4964244;28;89870;-39
2022/04/20 09:40:11;;;;;;;78.45;51.70;;;18.40;53.20;;;;;;4948151;28;90380;-37
2022/04/20 09:42:59;;;;;;;77.40;51.47;;;18.40;53.10;;;;;;4944648;28;90449;-37
2022/04/20 09:45:24;;;;;;;78.28;51.92;;;18.50;53.10;;;;;;4955310;28;89817;-38
2022/04/20 09:50:34;;;;;;;79.85;51.85;;;18.50;53.10;;;;;;4947810;28;90051;-39
2022/04/20 09:53:06;;;;;;;78.63;51.75;;;18.50;53.20;;;;;;4950491;28;90572;-37
2022/04/20 09:55:35;;;;;;;77.82;51.60;;;18.50;53.20;;;;;;4948059;28;90152;-40
2022/04/20 09:58:17;;;;;;;78.68;51.75;;;18.50;53.20;;;;;;4960447;28;90417;-42
2022/04/20 10:00:51;;;;;;;78.75;52.03;;;18.50;53.10;;;;;;4951015;28;92753;-40
2022/04/20 10:03:33;;;;;;;79.13;51.95;;;18.50;53.10;;;;;;4948072;28;91755;-41
2022/04/20 10:06:00;;;;;;;78.43;51.83;;;18.60;53.20;;;;;;4949084;28;90092;-38
2022/04/20 10:08:26;;;;;;;79.60;51.83;;;18.60;53.80;;;;;;4958019;28;89959;-41
2022/04/20 10:10:55;;;;;;;80.28;52.10;;;18.60;53.20;;;;;;4959609;28;89851;-42
2022/04/20 10:13:22;;;;;;;79.05;52.30;;;18.60;53.20;;;;;;4958483;28;90754;-38
2022/04/20 10:16:06;;;;;;;79.97;52.30;;;18.60;53.10;;;;;;4942760;28;93203;-37
2022/04/20 10:18:37;;;;;;;82.60;51.92;;;18.60;53.10;;;;;;4950177;28;88509;-41
2022/04/20 10:21:04;;;;;;;79.13;51.55;;;18.60;53.00;;;;;;4943141;28;91374;-40
2022/04/20 10:23:30;;;;;;;79.55;51.92;;;18.60;53.00;;;;;;4942509;28;90775;-39
2022/04/20 10:25:58;;;;;;;80.00;52.17;;;18.60;53.10;;;;;;4943054;28;91000;-40
2022/04/20 10:28:54;;;;;;;82.13;53.08;;;18.60;53.20;;;;;;4945668;28;90057;-37
2022/04/20 10:31:28;;;;;;;85.80;53.72;;;18.60;53.80;;;;;;4950009;28;91344;-38
2022/04/20 10:33:55;;;;;;;83.07;53.88;;;18.70;53.30;;;;;;4946626;28;89800;-39
2022/04/20 10:36:33;;;;;;;84.47;54.35;;;18.70;53.30;;;;;;4942198;28;90687;-41
2022/04/20 10:39:16;;;;;;;86.45;54.53;;;18.70;53.30;;;;;;4947267;28;89489;-39
2022/04/20 10:42:02;;;;;;;84.15;54.00;;;18.70;53.30;;;;;;4957940;28;90332;-41
2022/04/20 10:44:48;;;;;;;85.10;54.55;;;18.70;53.20;;;;;;4948780;28;89024;-38
2022/04/20 10:47:19;;;;;;;85.03;54.17;;;18.70;53.10;;;;;;4956751;28;89835;-39
2022/04/20 10:49:45;;;;;;;84.93;53.80;;;18.80;53.10;;;;;;4945058;28;90016;-39
2022/04/20 10:52:29;;;;;;;83.13;53.70;;;18.70;53.00;;;;;;4946652;28;91093;-40
2022/04/20 10:54:56;;;;;;;83.65;53.63;;;18.80;53.00;;;;;;4946154;28;89953;-37
2022/04/20 10:57:39;;;;;;;86.00;54.05;;;18.80;52.90;;;;;;4946861;28;90226;-37
2022/04/20 11:00:16;;;;;;;86.18;53.55;;;18.80;52.90;;;;;;4940495;28;91421;-39
2022/04/20 11:03:05;;;;;;;87.25;53.47;;;18.80;52.60;;;;;;4939540;28;90682;-36
2022/04/20 11:05:32;;;;;;;83.40;53.20;;;18.80;52.30;;;;;;4942230;28;91429;-39
2022/04/20 11:08:07;;;;;;;88.40;53.35;;;18.90;52.10;;;;;;4942588;28;89990;-38
2022/04/20 11:10:34;;;;;;;88.93;53.42;;;18.90;52.00;;;;;;4940620;28;88887;-40
2022/04/20 11:19:12;;;;;;;84.07;53.35;;;18.90;51.60;;;;;;4944891;28;91268;-38
2022/04/20 11:21:51;;;;;;;93.05;53.70;;;18.90;51.50;;;;;;4945944;28;89956;-40
2022/04/20 11:24:27;;;;;;;87.15;53.10;;;18.90;51.20;;;;;;4942381;28;90196;-42
2022/04/20 11:26:53;;;;;;;85.32;52.90;;;19.00;51.10;;;;;;4952520;28;90425;-38
2022/04/20 11:29:22;;;;;;;81.35;52.95;;;19.00;50.90;;;;;;4945975;28;91069;-41
2022/04/20 11:31:57;;;;;;;87.57;53.40;;;19.00;50.70;;;;;;4939807;28;90493;-37
2022/04/20 11:34:26;;;;;;;85.25;53.15;;;19.00;50.60;;;;;;4946455;28;94429;-38
2022/04/20 11:36:53;;;;;;;87.03;53.25;;;19.00;50.40;;;;;;4940406;28;90548;-41
2022/04/20 11:39:22;;;;;;;91.05;53.40;;;19.10;50.20;;;;;;4934696;28;91975;-41
2022/04/20 11:41:53;;;;;;;83.93;53.25;;;19.10;50.10;;;;;;4945264;28;92403;-41
2022/04/20 11:44:20;;;;;;;83.63;53.08;;;19.10;50.00;;;;;;4939423;28;91145;-38
2022/04/20 11:46:46;;;;;;;83.35;52.92;;;19.10;49.80;;;;;;4934484;28;93791;-41
2022/04/20 11:49:12;;;;;;;82.95;53.38;;;19.10;49.70;;;;;;4943594;28;97247;-37
2022/04/20 11:51:43;;;;;;;85.50;53.10;;;19.10;49.60;;;;;;4945688;28;90244;-39
2022/04/20 11:54:09;;;;;;;83.32;53.30;;;19.10;49.50;;;;;;4940065;28;91366;-40
2022/04/20 11:56:37;;;;;;;84.43;53.15;;;19.10;49.40;;;;;;4947403;28;95891;-39
2022/04/20 11:59:06;;;;;;;86.88;53.20;;;19.20;49.40;;;;;;4946735;28;90598;-38
2022/04/20 12:01:33;;;;;;;82.80;53.08;;;19.10;49.30;;;;;;4942111;28;91496;-35
2022/04/20 12:04:04;;;;;;;84.85;52.95;;;19.20;49.40;;;;;;4948860;28;92934;-39
2022/04/20 12:06:30;;;;;;;85.18;53.00;;;19.20;49.40;;;;;;4943049;28;89911;-37
2022/04/20 12:08:56;;;;;;;82.55;53.25;;;19.20;49.30;;;;;;4945338;28;90618;-40
2022/04/20 12:11:22;;;;;;;87.82;53.15;;;19.20;49.30;;;;;;4943839;28;94828;-38
2022/04/20 12:13:54;;;;;;;88.45;53.03;;;19.20;49.30;;;;;;4949476;28;90040;-39
2022/04/20 12:16:23;;;;;;;84.57;53.10;;;19.20;49.20;;;;;;4947662;28;89767;-37
2022/04/20 12:18:49;;;;;;;86.47;52.85;;;19.20;49.70;;;;;;4947032;28;90687;-40
2022/04/20 12:21:39;;;;;;;85.18;52.78;;;19.20;49.10;;;;;;4944499;28;89551;-37
2022/04/20 12:24:06;;;;;;;83.20;52.90;;;19.30;49.30;;;;;;4946557;28;90202;-37
2022/04/20 12:26:32;;;;;;;83.35;52.75;;;19.30;49.20;;;;;;4944508;28;89134;-38
2022/04/20 12:28:58;;;;;;;81.50;52.53;;;19.30;49.10;;;;;;4942776;28;90662;-41
2022/04/20 12:31:25;;;;;;;85.10;52.75;;;19.30;49.00;;;;;;4933397;28;91160;-36
2022/04/20 12:34:06;;;;;;;87.10;52.50;;;19.30;49.10;;;;;;4950524;28;91617;-39
2022/04/20 12:36:53;;;;;;;83.13;52.95;;;19.40;49.10;;;;;;4945745;28;95197;-37
2022/04/20 12:39:34;;;;;;;87.47;53.03;;;19.40;49.00;;;;;;4940302;28;90028;-37
2022/04/20 12:42:07;;;;;;;81.97;53.25;;;19.40;48.90;;;;;;4945529;28;90574;-38
2022/04/20 12:44:46;;;;;;;81.65;52.83;;;19.40;48.90;;;;;;4949177;28;90715;-41
2022/04/20 12:47:14;;;;;;;83.43;52.83;;;19.40;48.80;;;;;;4950165;28;89981;-37
2022/04/20 12:49:41;;;;;;;82.00;52.78;;;19.40;48.80;;;;;;4949706;28;90794;-39
2022/04/20 12:52:15;;;;;;;83.80;52.85;;;19.40;48.70;;;;;;4942753;28;88469;-37
2022/04/20 12:54:52;;;;;;;82.90;52.92;;;19.40;48.60;;;;;;4947683;28;89972;-37
2022/04/20 13:03:02;;;;;;;81.47;52.78;;;19.50;48.50;;;;;;4934595;28;90743;-41
2022/04/20 13:05:29;;;;;;;82.38;52.92;;;19.50;48.50;;;;;;4949022;28;90128;-37
2022/04/20 13:07:55;;;;;;;82.57;52.80;;;19.50;48.40;;;;;;4939574;28;91193;-41